sensor_id;sensor_type;location;lat;lon;timestamp;temperature;humidity
72756;SHT30;60881;55.002;73.232;2022-11-06T00:01:38;1.33;75.54
72756;SHT30;60881;55.002;73.232;2022-11-06T00:04:04;1.23;75.79
72756;SHT30;60881;55.002;73.232;2022-11-06T00:06:31;1.31;75.81
72756;SHT30;60881;55.002;73.232;2022-11-06T00:09:19;1.38;75.69
72756;SHT30;60881;55.002;73.232;2022-11-06T00:11:46;1.35;76.32
72756;SHT30;60881;55.002;73.232;2022-11-06T00:14:13;1.29;76.75
72756;SHT30;60881;55.002;73.232;2022-11-06T00:16:42;1.33;76.78
72756;SHT30;60881;55.002;73.232;2022-11-06T00:19:08;1.18;77.54
72756;SHT30;60881;55.002;73.232;2022-11-06T00:21:35;1.18;77.66
72756;SHT30;60881;55.002;73.232;2022-11-06T00:24:12;1.18;77.71
72756;SHT30;60881;55.002;73.232;2022-11-06T00:26:39;1.22;77.24
72756;SHT30;60881;55.002;73.232;2022-11-06T00:29:05;1.11;77.51
72756;SHT30;60881;55.002;73.232;2022-11-06T00:31:37;1.15;77.87
72756;SHT30;60881;55.002;73.232;2022-11-06T00:34:11;1.15;78.23
72756;SHT30;60881;55.002;73.232;2022-11-06T00:36:37;1.18;77.94
72756;SHT30;60881;55.002;73.232;2022-11-06T00:39:04;1.19;78.08
72756;SHT30;60881;55.002;73.232;2022-11-06T00:41:31;1.22;78.04
72756;SHT30;60881;55.002;73.232;2022-11-06T00:43:58;1.23;77.99
72756;SHT30;60881;55.002;73.232;2022-11-06T00:46:24;1.19;77.93
72756;SHT30;60881;55.002;73.232;2022-11-06T00:48:52;1.16;78.13
72756;SHT30;60881;55.002;73.232;2022-11-06T00:51:20;1.13;78.27
72756;SHT30;60881;55.002;73.232;2022-11-06T00:53:51;1.13;78.25
72756;SHT30;60881;55.002;73.232;2022-11-06T00:56:18;1.08;78.48
72756;SHT30;60881;55.002;73.232;2022-11-06T00:58:57;1.09;78.23
72756;SHT30;60881;55.002;73.232;2022-11-06T01:01:35;1.06;78.36
72756;SHT30;60881;55.002;73.232;2022-11-06T01:04:02;0.96;78.72
72756;SHT30;60881;55.002;73.232;2022-11-06T01:06:30;0.92;78.86
72756;SHT30;60881;55.002;73.232;2022-11-06T01:08:57;0.87;79.18
72756;SHT30;60881;55.002;73.232;2022-11-06T01:11:25;0.84;78.82
72756;SHT30;60881;55.002;73.232;2022-11-06T01:13:53;0.87;79.02
72756;SHT30;60881;55.002;73.232;2022-11-06T01:16:20;0.92;78.59
72756;SHT30;60881;55.002;73.232;2022-11-06T01:18:47;0.88;78.59
72756;SHT30;60881;55.002;73.232;2022-11-06T01:21:18;0.89;78.62
72756;SHT30;60881;55.002;73.232;2022-11-06T01:23:45;0.88;78.93
72756;SHT30;60881;55.002;73.232;2022-11-06T01:26:13;0.92;78.07
72756;SHT30;60881;55.002;73.232;2022-11-06T01:28:39;0.75;78.66
72756;SHT30;60881;55.002;73.232;2022-11-06T01:31:14;0.75;78.63
72756;SHT30;60881;55.002;73.232;2022-11-06T01:33:40;0.72;78.80
72756;SHT30;60881;55.002;73.232;2022-11-06T01:36:13;0.75;78.26
72756;SHT30;60881;55.002;73.232;2022-11-06T01:38:45;0.85;78.23
72756;SHT30;60881;55.002;73.232;2022-11-06T01:41:17;0.87;77.56
72756;SHT30;60881;55.002;73.232;2022-11-06T01:43:45;0.84;77.21
72756;SHT30;60881;55.002;73.232;2022-11-06T01:46:12;0.78;77.68
72756;SHT30;60881;55.002;73.232;2022-11-06T01:48:38;0.89;77.20
72756;SHT30;60881;55.002;73.232;2022-11-06T01:51:16;0.82;77.16
72756;SHT30;60881;55.002;73.232;2022-11-06T01:53:42;0.75;76.89
72756;SHT30;60881;55.002;73.232;2022-11-06T01:56:11;0.75;76.73
72756;SHT30;60881;55.002;73.232;2022-11-06T01:58:38;0.72;76.76
72756;SHT30;60881;55.002;73.232;2022-11-06T02:01:09;0.65;76.76
72756;SHT30;60881;55.002;73.232;2022-11-06T02:03:36;0.60;76.82
72756;SHT30;60881;55.002;73.232;2022-11-06T02:06:02;0.62;76.33
72756;SHT30;60881;55.002;73.232;2022-11-06T02:08:29;0.61;76.23
72756;SHT30;60881;55.002;73.232;2022-11-06T02:10:55;0.58;75.98
72756;SHT30;60881;55.002;73.232;2022-11-06T02:22:13;0.53;74.77
72756;SHT30;60881;55.002;73.232;2022-11-06T02:27:22;0.55;74.61
72756;SHT30;60881;55.002;73.232;2022-11-06T02:32:20;0.64;73.99
72756;SHT30;60881;55.002;73.232;2022-11-06T02:34:48;0.64;74.13
72756;SHT30;60881;55.002;73.232;2022-11-06T02:37:17;0.67;73.62
72756;SHT30;60881;55.002;73.232;2022-11-06T02:39:46;0.67;73.74
72756;SHT30;60881;55.002;73.232;2022-11-06T02:42:15;0.68;73.64
72756;SHT30;60881;55.002;73.232;2022-11-06T02:44:43;0.65;73.78
72756;SHT30;60881;55.002;73.232;2022-11-06T02:47:11;0.60;74.10
72756;SHT30;60881;55.002;73.232;2022-11-06T02:49:49;0.61;74.03
72756;SHT30;60881;55.002;73.232;2022-11-06T02:52:20;0.57;73.97
72756;SHT30;60881;55.002;73.232;2022-11-06T02:54:50;0.54;73.64
72756;SHT30;60881;55.002;73.232;2022-11-06T02:57:18;0.55;73.51
72756;SHT30;60881;55.002;73.232;2022-11-06T03:02:13;0.62;72.72
72756;SHT30;60881;55.002;73.232;2022-11-06T03:04:45;0.61;72.51
72756;SHT30;60881;55.002;73.232;2022-11-06T03:09:48;0.71;72.09
72756;SHT30;60881;55.002;73.232;2022-11-06T03:14:59;0.78;71.45
72756;SHT30;60881;55.002;73.232;2022-11-06T03:17:40;0.79;71.08
72756;SHT30;60881;55.002;73.232;2022-11-06T03:20:53;0.72;71.24
72756;SHT30;60881;55.002;73.232;2022-11-06T03:23:04;0.77;70.92
72756;SHT30;60881;55.002;73.232;2022-11-06T03:28:10;0.72;70.89
72756;SHT30;60881;55.002;73.232;2022-11-06T03:30:47;0.72;70.69
72756;SHT30;60881;55.002;73.232;2022-11-06T03:33:19;0.71;70.60
72756;SHT30;60881;55.002;73.232;2022-11-06T03:35:56;0.72;70.28
72756;SHT30;60881;55.002;73.232;2022-11-06T03:38:45;0.75;70.59
72756;SHT30;60881;55.002;73.232;2022-11-06T03:41:37;0.77;70.20
72756;SHT30;60881;55.002;73.232;2022-11-06T03:44:12;0.88;70.00
72756;SHT30;60881;55.002;73.232;2022-11-06T03:46:41;0.79;70.39
72756;SHT30;60881;55.002;73.232;2022-11-06T03:49:10;0.77;70.44
72756;SHT30;60881;55.002;73.232;2022-11-06T03:51:42;0.81;70.35
72756;SHT30;60881;55.002;73.232;2022-11-06T03:54:12;0.84;69.89
72756;SHT30;60881;55.002;73.232;2022-11-06T03:59:17;0.84;69.80
72756;SHT30;60881;55.002;73.232;2022-11-06T04:01:48;0.87;69.56
72756;SHT30;60881;55.002;73.232;2022-11-06T04:04:17;0.88;69.24
72756;SHT30;60881;55.002;73.232;2022-11-06T04:06:55;0.85;69.14
72756;SHT30;60881;55.002;73.232;2022-11-06T04:09:29;0.87;68.38
72756;SHT30;60881;55.002;73.232;2022-11-06T04:12:16;0.82;68.48
72756;SHT30;60881;55.002;73.232;2022-11-06T04:15:03;0.81;68.88
72756;SHT30;60881;55.002;73.232;2022-11-06T04:17:30;0.87;68.03
72756;SHT30;60881;55.002;73.232;2022-11-06T04:19:57;0.91;67.86
72756;SHT30;60881;55.002;73.232;2022-11-06T04:22:54;0.96;68.12
72756;SHT30;60881;55.002;73.232;2022-11-06T04:25:33;1.05;67.17
72756;SHT30;60881;55.002;73.232;2022-11-06T04:28:22;1.11;66.64
72756;SHT30;60881;55.002;73.232;2022-11-06T04:40:06;1.11;65.29
72756;SHT30;60881;55.002;73.232;2022-11-06T04:45:07;1.11;65.33
72756;SHT30;60881;55.002;73.232;2022-11-06T04:47:35;1.15;65.12
72756;SHT30;60881;55.002;73.232;2022-11-06T04:50:03;1.16;65.13
72756;SHT30;60881;55.002;73.232;2022-11-06T04:52:30;1.26;64.25
72756;SHT30;60881;55.002;73.232;2022-11-06T04:54:57;1.25;64.02
72756;SHT30;60881;55.002;73.232;2022-11-06T04:57:24;1.28;64.00
72756;SHT30;60881;55.002;73.232;2022-11-06T04:59:50;1.33;64.02
72756;SHT30;60881;55.002;73.232;2022-11-06T05:02:17;1.28;63.76
72756;SHT30;60881;55.002;73.232;2022-11-06T05:08:54;1.40;63.05
72756;SHT30;60881;55.002;73.232;2022-11-06T05:11:22;1.52;62.94
72756;SHT30;60881;55.002;73.232;2022-11-06T05:13:53;1.49;62.40
72756;SHT30;60881;55.002;73.232;2022-11-06T05:16:19;1.43;62.19
72756;SHT30;60881;55.002;73.232;2022-11-06T05:18:46;1.35;63.07
72756;SHT30;60881;55.002;73.232;2022-11-06T05:21:13;1.40;62.34
72756;SHT30;60881;55.002;73.232;2022-11-06T05:23:58;1.46;61.86
72756;SHT30;60881;55.002;73.232;2022-11-06T05:26:28;1.46;62.74
72756;SHT30;60881;55.002;73.232;2022-11-06T05:28:55;1.38;62.27
72756;SHT30;60881;55.002;73.232;2022-11-06T05:31:23;1.45;61.98
72756;SHT30;60881;55.002;73.232;2022-11-06T05:34:00;1.60;62.78
72756;SHT30;60881;55.002;73.232;2022-11-06T05:36:27;1.74;61.73
72756;SHT30;60881;55.002;73.232;2022-11-06T05:38:57;1.74;61.52
72756;SHT30;60881;55.002;73.232;2022-11-06T05:41:23;1.77;62.00
72756;SHT30;60881;55.002;73.232;2022-11-06T05:43:59;1.87;61.39
72756;SHT30;60881;55.002;73.232;2022-11-06T05:46:25;1.91;61.27
72756;SHT30;60881;55.002;73.232;2022-11-06T05:48:52;1.96;60.84
72756;SHT30;60881;55.002;73.232;2022-11-06T05:51:25;1.99;60.78
72756;SHT30;60881;55.002;73.232;2022-11-06T05:53:55;1.93;60.50
72756;SHT30;60881;55.002;73.232;2022-11-06T05:56:21;1.90;60.99
72756;SHT30;60881;55.002;73.232;2022-11-06T05:58:48;1.83;61.36
72756;SHT30;60881;55.002;73.232;2022-11-06T06:01:24;1.86;61.02
72756;SHT30;60881;55.002;73.232;2022-11-06T06:03:50;1.74;60.93
72756;SHT30;60881;55.002;73.232;2022-11-06T06:06:23;1.79;60.29
72756;SHT30;60881;55.002;73.232;2022-11-06T06:08:49;1.80;60.19
72756;SHT30;60881;55.002;73.232;2022-11-06T06:11:19;1.77;60.63
72756;SHT30;60881;55.002;73.232;2022-11-06T06:13:47;1.71;60.27
72756;SHT30;60881;55.002;73.232;2022-11-06T06:16:14;1.76;59.76
72756;SHT30;60881;55.002;73.232;2022-11-06T06:18:42;1.67;60.00
72756;SHT30;60881;55.002;73.232;2022-11-06T06:21:08;1.66;59.92
72756;SHT30;60881;55.002;73.232;2022-11-06T06:23:35;1.73;60.22
72756;SHT30;60881;55.002;73.232;2022-11-06T06:26:01;1.74;61.16
72756;SHT30;60881;55.002;73.232;2022-11-06T06:28:30;1.71;59.91
72756;SHT30;60881;55.002;73.232;2022-11-06T06:30:56;1.76;60.32
72756;SHT30;60881;55.002;73.232;2022-11-06T06:33:29;1.81;60.23
72756;SHT30;60881;55.002;73.232;2022-11-06T06:35:56;1.84;59.72
72756;SHT30;60881;55.002;73.232;2022-11-06T06:38:24;1.80;59.75
72756;SHT30;60881;55.002;73.232;2022-11-06T06:40:52;1.91;59.56
72756;SHT30;60881;55.002;73.232;2022-11-06T06:43:21;1.73;59.67
72756;SHT30;60881;55.002;73.232;2022-11-06T06:45:47;1.60;60.02
72756;SHT30;60881;55.002;73.232;2022-11-06T06:48:13;1.55;60.56
72756;SHT30;60881;55.002;73.232;2022-11-06T06:50:51;1.46;60.70
72756;SHT30;60881;55.002;73.232;2022-11-06T06:53:17;1.40;60.72
72756;SHT30;60881;55.002;73.232;2022-11-06T06:55:45;1.43;60.98
72756;SHT30;60881;55.002;73.232;2022-11-06T06:58:13;1.42;61.16
72756;SHT30;60881;55.002;73.232;2022-11-06T07:00:46;1.46;61.28
72756;SHT30;60881;55.002;73.232;2022-11-06T07:03:13;1.43;61.12
72756;SHT30;60881;55.002;73.232;2022-11-06T07:05:39;1.46;61.82
72756;SHT30;60881;55.002;73.232;2022-11-06T07:08:11;1.52;61.69
72756;SHT30;60881;55.002;73.232;2022-11-06T07:10:37;1.38;61.76
72756;SHT30;60881;55.002;73.232;2022-11-06T07:13:04;1.38;62.74
72756;SHT30;60881;55.002;73.232;2022-11-06T07:15:30;1.42;62.65
72756;SHT30;60881;55.002;73.232;2022-11-06T07:18:03;1.45;62.77
72756;SHT30;60881;55.002;73.232;2022-11-06T07:20:30;1.46;62.32
72756;SHT30;60881;55.002;73.232;2022-11-06T07:22:57;1.50;62.24
72756;SHT30;60881;55.002;73.232;2022-11-06T07:25:34;1.46;62.56
72756;SHT30;60881;55.002;73.232;2022-11-06T07:28:00;1.57;62.61
72756;SHT30;60881;55.002;73.232;2022-11-06T07:30:27;1.60;62.99
72756;SHT30;60881;55.002;73.232;2022-11-06T07:33:02;1.67;62.54
72756;SHT30;60881;55.002;73.232;2022-11-06T07:35:29;1.73;63.03
72756;SHT30;60881;55.002;73.232;2022-11-06T07:37:55;1.76;62.71
72756;SHT30;60881;55.002;73.232;2022-11-06T07:40:23;1.71;63.25
72756;SHT30;60881;55.002;73.232;2022-11-06T07:43:01;1.69;63.93
72756;SHT30;60881;55.002;73.232;2022-11-06T07:45:27;1.77;63.55
72756;SHT30;60881;55.002;73.232;2022-11-06T07:47:54;1.84;63.36
72756;SHT30;60881;55.002;73.232;2022-11-06T07:50:21;1.94;63.47
72756;SHT30;60881;55.002;73.232;2022-11-06T07:52:48;1.90;63.85
72756;SHT30;60881;55.002;73.232;2022-11-06T07:55:14;2.00;63.84
72756;SHT30;60881;55.002;73.232;2022-11-06T07:57:43;2.00;64.40
72756;SHT30;60881;55.002;73.232;2022-11-06T08:00:10;2.03;64.94
72756;SHT30;60881;55.002;73.232;2022-11-06T08:02:39;2.11;64.77
72756;SHT30;60881;55.002;73.232;2022-11-06T08:05:06;2.14;65.36
72756;SHT30;60881;55.002;73.232;2022-11-06T08:07:32;2.09;65.97
72756;SHT30;60881;55.002;73.232;2022-11-06T08:09:59;2.01;66.76
72756;SHT30;60881;55.002;73.232;2022-11-06T08:12:26;2.06;67.00
72756;SHT30;60881;55.002;73.232;2022-11-06T08:15:02;2.07;67.74
72756;SHT30;60881;55.002;73.232;2022-11-06T08:17:28;2.11;67.95
72756;SHT30;60881;55.002;73.232;2022-11-06T08:20:07;2.06;68.82
72756;SHT30;60881;55.002;73.232;2022-11-06T08:22:33;2.00;69.27
72756;SHT30;60881;55.002;73.232;2022-11-06T08:25:11;1.97;69.58
72756;SHT30;60881;55.002;73.232;2022-11-06T08:27:37;1.94;70.02
72756;SHT30;60881;55.002;73.232;2022-11-06T08:30:03;1.99;70.29
72756;SHT30;60881;55.002;73.232;2022-11-06T08:32:29;1.91;70.51
72756;SHT30;60881;55.002;73.232;2022-11-06T08:34:56;1.87;70.92
72756;SHT30;60881;55.002;73.232;2022-11-06T08:37:23;1.84;71.35
72756;SHT30;60881;55.002;73.232;2022-11-06T08:39:49;1.99;71.50
72756;SHT30;60881;55.002;73.232;2022-11-06T08:42:15;2.04;71.07
72756;SHT30;60881;55.002;73.232;2022-11-06T08:44:41;2.14;71.11
72756;SHT30;60881;55.002;73.232;2022-11-06T08:47:08;2.18;71.15
72756;SHT30;60881;55.002;73.232;2022-11-06T08:49:34;2.17;71.42
72756;SHT30;60881;55.002;73.232;2022-11-06T08:52:00;2.11;71.99
72756;SHT30;60881;55.002;73.232;2022-11-06T08:54:26;2.07;72.29
72756;SHT30;60881;55.002;73.232;2022-11-06T08:56:54;2.11;72.36
72756;SHT30;60881;55.002;73.232;2022-11-06T08:59:21;2.13;72.18
72756;SHT30;60881;55.002;73.232;2022-11-06T09:01:48;2.10;72.63
72756;SHT30;60881;55.002;73.232;2022-11-06T09:04:15;2.15;72.80
72756;SHT30;60881;55.002;73.232;2022-11-06T09:06:42;2.18;73.12
72756;SHT30;60881;55.002;73.232;2022-11-06T09:09:08;2.18;72.82
72756;SHT30;60881;55.002;73.232;2022-11-06T09:11:34;2.21;72.85
72756;SHT30;60881;55.002;73.232;2022-11-06T09:14:01;2.15;73.22
72756;SHT30;60881;55.002;73.232;2022-11-06T09:16:28;2.13;73.12
72756;SHT30;60881;55.002;73.232;2022-11-06T09:18:55;2.07;73.31
72756;SHT30;60881;55.002;73.232;2022-11-06T09:21:21;2.06;73.56
72756;SHT30;60881;55.002;73.232;2022-11-06T09:23:48;2.11;73.44
72756;SHT30;60881;55.002;73.232;2022-11-06T09:26:15;2.14;73.41
72756;SHT30;60881;55.002;73.232;2022-11-06T09:28:41;2.06;73.53
72756;SHT30;60881;55.002;73.232;2022-11-06T09:31:09;2.03;73.77
72756;SHT30;60881;55.002;73.232;2022-11-06T09:33:35;2.00;73.99
72756;SHT30;60881;55.002;73.232;2022-11-06T09:36:04;2.00;74.21
72756;SHT30;60881;55.002;73.232;2022-11-06T09:38:31;1.99;73.98
72756;SHT30;60881;55.002;73.232;2022-11-06T09:40:59;1.97;74.11
72756;SHT30;60881;55.002;73.232;2022-11-06T09:43:45;1.96;74.15
72756;SHT30;60881;55.002;73.232;2022-11-06T09:46:22;1.91;73.98
72756;SHT30;60881;55.002;73.232;2022-11-06T09:48:54;1.86;74.17
72756;SHT30;60881;55.002;73.232;2022-11-06T09:54:12;1.86;74.08
72756;SHT30;60881;55.002;73.232;2022-11-06T09:56:41;1.83;74.44
72756;SHT30;60881;55.002;73.232;2022-11-06T09:59:13;1.80;74.79
72756;SHT30;60881;55.002;73.232;2022-11-06T10:02:02;1.84;74.71
72756;SHT30;60881;55.002;73.232;2022-11-06T10:04:37;1.83;74.43
72756;SHT30;60881;55.002;73.232;2022-11-06T10:07:39;1.79;74.69
72756;SHT30;60881;55.002;73.232;2022-11-06T10:09:58;1.74;74.79
72756;SHT30;60881;55.002;73.232;2022-11-06T10:20:52;1.73;74.53
72756;SHT30;60881;55.002;73.232;2022-11-06T10:25:52;1.79;74.45
72756;SHT30;60881;55.002;73.232;2022-11-06T10:28:50;1.79;74.91
72756;SHT30;60881;55.002;73.232;2022-11-06T10:31:45;1.76;74.34
72756;SHT30;60881;55.002;73.232;2022-11-06T10:34:20;1.79;74.60
72756;SHT30;60881;55.002;73.232;2022-11-06T10:37:01;1.73;74.60
72756;SHT30;60881;55.002;73.232;2022-11-06T10:39:30;1.73;74.11
72756;SHT30;60881;55.002;73.232;2022-11-06T10:41:58;1.71;74.74
72756;SHT30;60881;55.002;73.232;2022-11-06T10:44:45;1.63;74.49
72756;SHT30;60881;55.002;73.232;2022-11-06T10:47:19;1.55;74.54
72756;SHT30;60881;55.002;73.232;2022-11-06T10:50:19;1.62;74.41
72756;SHT30;60881;55.002;73.232;2022-11-06T10:55:42;1.62;74.70
72756;SHT30;60881;55.002;73.232;2022-11-06T10:58:13;1.59;74.51
72756;SHT30;60881;55.002;73.232;2022-11-06T11:00:40;1.69;74.06
72756;SHT30;60881;55.002;73.232;2022-11-06T11:03:14;1.66;74.33
72756;SHT30;60881;55.002;73.232;2022-11-06T11:05:51;1.74;73.95
72756;SHT30;60881;55.002;73.232;2022-11-06T11:08:31;1.83;73.48
72756;SHT30;60881;55.002;73.232;2022-11-06T11:11:02;1.80;73.66
72756;SHT30;60881;55.002;73.232;2022-11-06T11:13:33;1.64;73.65
72756;SHT30;60881;55.002;73.232;2022-11-06T11:16:14;1.62;74.22
72756;SHT30;60881;55.002;73.232;2022-11-06T11:18:51;1.59;74.43
72756;SHT30;60881;55.002;73.232;2022-11-06T11:24:26;1.67;73.70
72756;SHT30;60881;55.002;73.232;2022-11-06T11:26:34;1.66;73.38
72756;SHT30;60881;55.002;73.232;2022-11-06T11:29:10;1.66;73.56
72756;SHT30;60881;55.002;73.232;2022-11-06T11:31:37;1.73;73.36
72756;SHT30;60881;55.002;73.232;2022-11-06T11:34:04;1.73;72.76
72756;SHT30;60881;55.002;73.232;2022-11-06T11:39:18;1.69;72.72
72756;SHT30;60881;55.002;73.232;2022-11-06T11:41:49;1.70;72.48
72756;SHT30;60881;55.002;73.232;2022-11-06T11:44:18;1.77;72.26
72756;SHT30;60881;55.002;73.232;2022-11-06T11:46:51;1.83;72.51
72756;SHT30;60881;55.002;73.232;2022-11-06T11:49:26;1.74;72.47
72756;SHT30;60881;55.002;73.232;2022-11-06T11:51:52;1.71;72.68
72756;SHT30;60881;55.002;73.232;2022-11-06T11:54:19;1.67;73.09
72756;SHT30;60881;55.002;73.232;2022-11-06T11:59:32;1.59;73.86
72756;SHT30;60881;55.002;73.232;2022-11-06T12:02:10;1.64;74.19
72756;SHT30;60881;55.002;73.232;2022-11-06T12:04:40;1.64;73.95
72756;SHT30;60881;55.002;73.232;2022-11-06T12:07:13;1.66;73.91
72756;SHT30;60881;55.002;73.232;2022-11-06T12:09:47;1.70;73.97
72756;SHT30;60881;55.002;73.232;2022-11-06T12:12:51;1.69;73.73
72756;SHT30;60881;55.002;73.232;2022-11-06T12:17:59;1.89;72.70
72756;SHT30;60881;55.002;73.232;2022-11-06T12:20:29;1.73;73.13
72756;SHT30;60881;55.002;73.232;2022-11-06T12:22:56;1.71;73.42
72756;SHT30;60881;55.002;73.232;2022-11-06T12:25:25;1.71;73.10
72756;SHT30;60881;55.002;73.232;2022-11-06T12:27:53;1.70;73.48
72756;SHT30;60881;55.002;73.232;2022-11-06T12:30:21;1.71;73.02
72756;SHT30;60881;55.002;73.232;2022-11-06T12:38:06;1.70;73.19
72756;SHT30;60881;55.002;73.232;2022-11-06T12:40:37;1.69;72.44
72756;SHT30;60881;55.002;73.232;2022-11-06T12:50:51;1.71;72.75
72756;SHT30;60881;55.002;73.232;2022-11-06T12:59:19;1.60;73.03
72756;SHT30;60881;55.002;73.232;2022-11-06T13:01:51;1.64;73.13
72756;SHT30;60881;55.002;73.232;2022-11-06T13:07:18;1.62;73.15
72756;SHT30;60881;55.002;73.232;2022-11-06T13:09:55;1.53;73.47
72756;SHT30;60881;55.002;73.232;2022-11-06T13:20:01;1.62;72.73
72756;SHT30;60881;55.002;73.232;2022-11-06T13:22:34;1.67;72.85
72756;SHT30;60881;55.002;73.232;2022-11-06T13:25:13;1.76;72.65
72756;SHT30;60881;55.002;73.232;2022-11-06T13:27:43;1.74;72.48
72756;SHT30;60881;55.002;73.232;2022-11-06T13:30:13;1.73;72.58
72756;SHT30;60881;55.002;73.232;2022-11-06T13:32:43;1.71;72.46
72756;SHT30;60881;55.002;73.232;2022-11-06T13:35:16;1.67;72.67
72756;SHT30;60881;55.002;73.232;2022-11-06T13:37:48;1.62;73.00
72756;SHT30;60881;55.002;73.232;2022-11-06T13:40:17;1.57;73.00
72756;SHT30;60881;55.002;73.232;2022-11-06T13:43:09;1.59;73.53
72756;SHT30;60881;55.002;73.232;2022-11-06T13:45:35;1.60;73.74
72756;SHT30;60881;55.002;73.232;2022-11-06T13:56:09;1.50;74.49
72756;SHT30;60881;55.002;73.232;2022-11-06T14:01:26;1.50;74.92
72756;SHT30;60881;55.002;73.232;2022-11-06T14:07:06;1.50;75.95
72756;SHT30;60881;55.002;73.232;2022-11-06T14:09:34;1.55;75.52
72756;SHT30;60881;55.002;73.232;2022-11-06T14:12:02;1.55;75.44
72756;SHT30;60881;55.002;73.232;2022-11-06T14:14:30;1.59;75.51
72756;SHT30;60881;55.002;73.232;2022-11-06T14:17:10;1.57;76.06
72756;SHT30;60881;55.002;73.232;2022-11-06T14:19:37;1.57;75.83
72756;SHT30;60881;55.002;73.232;2022-11-06T14:22:22;1.57;75.98
72756;SHT30;60881;55.002;73.232;2022-11-06T14:24:52;1.45;75.81
72756;SHT30;60881;55.002;73.232;2022-11-06T14:34:52;1.55;74.95
72756;SHT30;60881;55.002;73.232;2022-11-06T14:40:04;1.53;74.88
72756;SHT30;60881;55.002;73.232;2022-11-06T14:42:38;1.39;75.38
72756;SHT30;60881;55.002;73.232;2022-11-06T14:47:56;1.59;74.27
72756;SHT30;60881;55.002;73.232;2022-11-06T14:50:31;1.55;74.54
72756;SHT30;60881;55.002;73.232;2022-11-06T14:53:01;1.55;74.19
72756;SHT30;60881;55.002;73.232;2022-11-06T14:55:31;1.55;74.08
72756;SHT30;60881;55.002;73.232;2022-11-06T14:58:18;1.56;74.24
72756;SHT30;60881;55.002;73.232;2022-11-06T15:00:49;1.53;74.15
72756;SHT30;60881;55.002;73.232;2022-11-06T15:08:55;1.49;73.66
72756;SHT30;60881;55.002;73.232;2022-11-06T15:16:46;1.47;73.83
72756;SHT30;60881;55.002;73.232;2022-11-06T15:21:46;1.52;73.90
72756;SHT30;60881;55.002;73.232;2022-11-06T15:26:47;1.33;74.67
72756;SHT30;60881;55.002;73.232;2022-11-06T15:31:43;1.35;74.22
72756;SHT30;60881;55.002;73.232;2022-11-06T15:34:21;1.31;74.76
72756;SHT30;60881;55.002;73.232;2022-11-06T15:36:51;1.35;74.11
72756;SHT30;60881;55.002;73.232;2022-11-06T15:39:30;1.35;73.96
72756;SHT30;60881;55.002;73.232;2022-11-06T15:42:50;1.39;74.30
72756;SHT30;60881;55.002;73.232;2022-11-06T15:45:08;1.46;73.56
72756;SHT30;60881;55.002;73.232;2022-11-06T15:47:36;1.40;73.67
72756;SHT30;60881;55.002;73.232;2022-11-06T15:52:47;1.40;73.66
72756;SHT30;60881;55.002;73.232;2022-11-06T15:55:26;1.35;73.84
72756;SHT30;60881;55.002;73.232;2022-11-06T16:00:58;1.47;73.28
72756;SHT30;60881;55.002;73.232;2022-11-06T16:03:25;1.45;73.34
72756;SHT30;60881;55.002;73.232;2022-11-06T16:05:52;1.38;73.86
72756;SHT30;60881;55.002;73.232;2022-11-06T16:08:20;1.40;73.50
72756;SHT30;60881;55.002;73.232;2022-11-06T16:10:48;1.40;73.40
72756;SHT30;60881;55.002;73.232;2022-11-06T16:13:25;1.33;74.02
72756;SHT30;60881;55.002;73.232;2022-11-06T16:15:52;1.43;73.68
72756;SHT30;60881;55.002;73.232;2022-11-06T16:18:27;1.39;73.75
72756;SHT30;60881;55.002;73.232;2022-11-06T16:20:57;1.47;73.64
72756;SHT30;60881;55.002;73.232;2022-11-06T16:23:32;1.43;73.45
72756;SHT30;60881;55.002;73.232;2022-11-06T16:29:25;1.38;73.66
72756;SHT30;60881;55.002;73.232;2022-11-06T16:34:51;1.33;73.39
72756;SHT30;60881;55.002;73.232;2022-11-06T16:39:54;1.23;74.02
72756;SHT30;60881;55.002;73.232;2022-11-06T16:44:47;1.15;74.37
72756;SHT30;60881;55.002;73.232;2022-11-06T16:47:17;1.21;74.11
72756;SHT30;60881;55.002;73.232;2022-11-06T16:49:50;1.28;73.63
72756;SHT30;60881;55.002;73.232;2022-11-06T16:52:25;1.35;73.82
72756;SHT30;60881;55.002;73.232;2022-11-06T16:55:06;1.40;73.61
72756;SHT30;60881;55.002;73.232;2022-11-06T17:05:20;1.36;73.77
72756;SHT30;60881;55.002;73.232;2022-11-06T17:07:47;1.43;73.75
72756;SHT30;60881;55.002;73.232;2022-11-06T17:10:23;1.46;73.14
72756;SHT30;60881;55.002;73.232;2022-11-06T17:12:50;1.49;73.01
72756;SHT30;60881;55.002;73.232;2022-11-06T17:15:17;1.43;73.36
72756;SHT30;60881;55.002;73.232;2022-11-06T17:17:44;1.31;73.90
72756;SHT30;60881;55.002;73.232;2022-11-06T17:20:17;1.40;74.07
72756;SHT30;60881;55.002;73.232;2022-11-06T17:22:45;1.43;73.86
72756;SHT30;60881;55.002;73.232;2022-11-06T17:25:11;1.39;73.71
72756;SHT30;60881;55.002;73.232;2022-11-06T17:27:38;1.42;73.99
72756;SHT30;60881;55.002;73.232;2022-11-06T17:30:05;1.42;73.84
72756;SHT30;60881;55.002;73.232;2022-11-06T17:32:32;1.49;73.57
72756;SHT30;60881;55.002;73.232;2022-11-06T17:34:59;1.49;73.46
72756;SHT30;60881;55.002;73.232;2022-11-06T17:37:35;1.42;73.92
72756;SHT30;60881;55.002;73.232;2022-11-06T17:40:03;1.55;72.60
72756;SHT30;60881;55.002;73.232;2022-11-06T17:42:29;1.62;72.86
72756;SHT30;60881;55.002;73.232;2022-11-06T17:45:03;1.70;72.55
72756;SHT30;60881;55.002;73.232;2022-11-06T17:47:29;1.56;73.05
72756;SHT30;60881;55.002;73.232;2022-11-06T17:49:56;1.55;73.09
72756;SHT30;60881;55.002;73.232;2022-11-06T17:52:23;1.52;72.98
72756;SHT30;60881;55.002;73.232;2022-11-06T17:55:00;1.53;72.79
72756;SHT30;60881;55.002;73.232;2022-11-06T17:57:26;1.53;73.13
72756;SHT30;60881;55.002;73.232;2022-11-06T17:59:55;1.60;73.36
72756;SHT30;60881;55.002;73.232;2022-11-06T18:02:21;1.53;73.04
72756;SHT30;60881;55.002;73.232;2022-11-06T18:04:47;1.53;73.44
72756;SHT30;60881;55.002;73.232;2022-11-06T18:07:16;1.56;73.78
72756;SHT30;60881;55.002;73.232;2022-11-06T18:09:42;1.60;73.28
72756;SHT30;60881;55.002;73.232;2022-11-06T18:12:10;1.60;73.22
72756;SHT30;60881;55.002;73.232;2022-11-06T18:14:44;1.76;72.85
72756;SHT30;60881;55.002;73.232;2022-11-06T18:17:10;1.76;72.73
72756;SHT30;60881;55.002;73.232;2022-11-06T18:19:36;1.76;72.62
72756;SHT30;60881;55.002;73.232;2022-11-06T18:22:04;1.62;73.07
72756;SHT30;60881;55.002;73.232;2022-11-06T18:24:30;1.73;73.13
72756;SHT30;60881;55.002;73.232;2022-11-06T18:26:56;1.83;72.43
72756;SHT30;60881;55.002;73.232;2022-11-06T18:29:22;1.84;72.59
72756;SHT30;60881;55.002;73.232;2022-11-06T18:31:50;1.94;72.38
72756;SHT30;60881;55.002;73.232;2022-11-06T18:34:16;1.93;72.43
72756;SHT30;60881;55.002;73.232;2022-11-06T18:36:43;1.87;72.89
72756;SHT30;60881;55.002;73.232;2022-11-06T18:39:10;1.86;72.51
72756;SHT30;60881;55.002;73.232;2022-11-06T18:41:47;1.86;72.66